createdAt,value
2019-05-05T00:01:45.092Z,3.30
2019-05-05T00:04:30.471Z,3.30
2019-05-05T00:06:58.894Z,3.30
2019-05-05T00:09:27.308Z,3.30
2019-05-05T00:12:14.707Z,3.20
2019-05-05T00:15:01.197Z,3.20
2019-05-05T00:17:31.268Z,3.30
2019-05-05T00:19:59.674Z,3.30
2019-05-05T00:22:28.108Z,3.30
2019-05-05T00:24:56.513Z,3.30
2019-05-05T00:27:25.497Z,3.20
2019-05-05T00:29:54.695Z,3.20
2019-05-05T00:32:24.531Z,3.20
2019-05-05T00:34:54.996Z,3.20
2019-05-05T00:37:25.488Z,3.30
2019-05-05T00:39:54.335Z,3.30
2019-05-05T00:42:24.730Z,3.30
2019-05-05T00:44:54.911Z,3.20
2019-05-05T00:47:41.521Z,3.20
2019-05-05T00:50:12.027Z,3.30
2019-05-05T00:52:40.440Z,3.30
2019-05-05T00:55:09.079Z,3.30
2019-05-05T00:57:37.491Z,3.10
2019-05-05T01:00:19.671Z,3.00
2019-05-05T01:02:49.743Z,3.00
2019-05-05T01:05:19.939Z,2.90
2019-05-05T01:07:48.368Z,2.90
2019-05-05T01:10:16.868Z,3.00
2019-05-05T01:12:45.281Z,2.90
2019-05-05T01:15:15.019Z,2.90
2019-05-05T01:17:45.087Z,2.90
2019-05-05T01:20:14.731Z,2.80
2019-05-05T01:22:44.823Z,2.80
2019-05-05T01:25:14.833Z,2.80
2019-05-05T01:27:45.274Z,2.80
2019-05-05T01:30:16.350Z,2.80
2019-05-05T01:32:49.205Z,2.70
2019-05-05T01:35:17.615Z,2.80
2019-05-05T01:37:56.833Z,2.80
2019-05-05T01:40:29.780Z,2.80
2019-05-05T01:42:58.181Z,2.80
2019-05-05T01:45:26.576Z,2.80
2019-05-05T01:47:55.030Z,2.80
2019-05-05T01:50:24.857Z,2.80
2019-05-05T01:52:55.439Z,2.80
2019-05-05T01:55:25.237Z,2.80
2019-05-05T01:57:54.453Z,2.80
2019-05-05T02:00:25.215Z,2.80
2019-05-05T02:02:55.235Z,2.80
2019-05-05T02:05:24.189Z,2.70
2019-05-05T02:07:52.738Z,2.70
2019-05-05T02:10:22.105Z,2.70
2019-05-05T02:12:50.537Z,2.70
2019-05-05T02:15:19.102Z,2.80
2019-05-05T02:17:47.495Z,2.80
2019-05-05T02:20:45.211Z,2.80
2019-05-05T02:23:15.368Z,2.80
2019-05-05T02:25:44.745Z,2.80
2019-05-05T02:28:14.954Z,2.80
2019-05-05T02:30:55.011Z,2.80
2019-05-05T02:33:26.166Z,2.80
2019-05-05T02:35:55.652Z,2.80
2019-05-05T02:38:26.132Z,2.80
2019-05-05T02:40:54.990Z,2.80
2019-05-05T02:43:24.996Z,2.80
2019-05-05T02:46:01.059Z,2.80
2019-05-05T02:48:30.205Z,2.80
2019-05-05T02:51:02.104Z,2.80
2019-05-05T02:53:35.747Z,2.90
2019-05-05T02:56:06.226Z,2.90
2019-05-05T02:58:37.946Z,2.90
2019-05-05T03:01:17.988Z,2.90
2019-05-05T03:03:47.454Z,2.90
2019-05-05T03:06:15.845Z,2.90
2019-05-05T03:08:44.941Z,2.90
2019-05-05T03:11:15.585Z,2.90
2019-05-05T03:13:45.963Z,2.90
2019-05-05T03:16:17.102Z,3.00
2019-05-05T03:18:46.160Z,3.00
2019-05-05T03:21:15.316Z,3.00
2019-05-05T03:23:44.127Z,3.00
2019-05-05T03:26:14.173Z,3.00
2019-05-05T03:28:54.463Z,3.10
2019-05-05T03:31:26.338Z,3.10
2019-05-05T03:33:55.052Z,3.10
2019-05-05T03:36:24.493Z,3.10
2019-05-05T03:38:55.060Z,3.20
2019-05-05T03:41:26.538Z,3.20
2019-05-05T03:44:00.906Z,3.20
2019-05-05T03:46:30.770Z,3.20
2019-05-05T03:48:59.455Z,3.20
2019-05-05T03:51:28.791Z,3.20
2019-05-05T03:53:57.582Z,3.20
2019-05-05T03:56:26.932Z,3.30
2019-05-05T03:58:58.305Z,3.30
2019-05-05T04:01:35.831Z,3.30
2019-05-05T04:04:24.491Z,3.20
2019-05-05T04:07:01.064Z,3.30
2019-05-05T04:09:29.551Z,3.30
2019-05-05T04:11:57.975Z,3.30
2019-05-05T04:14:26.396Z,3.30
2019-05-05T04:16:56.468Z,3.40
2019-05-05T04:19:29.301Z,3.40
2019-05-05T04:21:57.725Z,3.30
2019-05-05T04:24:26.143Z,3.40
2019-05-05T04:26:54.687Z,3.40
2019-05-05T04:29:24.435Z,3.40
2019-05-05T04:31:54.033Z,3.40
2019-05-05T04:34:24.103Z,3.40
2019-05-05T04:36:54.519Z,3.30
2019-05-05T04:39:23.680Z,3.30
2019-05-05T04:41:54.351Z,3.20
2019-05-05T04:44:23.678Z,3.10
2019-05-05T04:46:54.624Z,3.10
2019-05-05T04:49:24.899Z,3.00
2019-05-05T04:51:58.025Z,2.90
2019-05-05T04:54:31.034Z,2.90
2019-05-05T04:56:59.447Z,3.00
2019-05-05T04:59:27.860Z,3.00
2019-05-05T05:01:57.917Z,3.00
2019-05-05T05:04:39.956Z,2.90
2019-05-05T05:07:08.349Z,2.90
2019-05-05T05:09:36.768Z,2.90
2019-05-05T05:12:05.313Z,2.90
2019-05-05T05:14:33.890Z,2.80
2019-05-05T05:17:04.169Z,2.70
2019-05-05T05:19:33.512Z,2.70
2019-05-05T05:22:04.441Z,2.70
2019-05-05T05:24:34.142Z,2.70
2019-05-05T05:27:02.431Z,2.80
2019-05-05T05:29:30.854Z,2.90
2019-05-05T05:31:59.276Z,2.80
2019-05-05T05:34:27.712Z,2.90
2019-05-05T05:36:56.174Z,2.90
2019-05-05T05:39:26.222Z,2.90
2019-05-05T05:41:54.652Z,2.90
2019-05-05T05:44:36.703Z,3.00
2019-05-05T05:47:06.768Z,2.90
2019-05-05T05:49:45.609Z,2.90
2019-05-05T05:52:18.932Z,2.90
2019-05-05T05:54:44.323Z,2.90
2019-05-05T05:57:14.435Z,2.90
2019-05-05T05:59:44.458Z,3.00
2019-05-05T06:02:15.519Z,2.90
2019-05-05T06:04:44.578Z,2.90
2019-05-05T06:07:14.225Z,3.00
2019-05-05T06:09:43.945Z,3.10
2019-05-05T06:12:14.022Z,3.20
2019-05-05T06:14:44.513Z,3.10
2019-05-05T06:17:13.484Z,3.20
2019-05-05T06:19:44.435Z,3.20
2019-05-05T06:22:17.834Z,3.10
2019-05-05T06:24:43.986Z,3.10
2019-05-05T06:27:14.285Z,3.20
2019-05-05T06:29:43.790Z,3.10
2019-05-05T06:32:14.512Z,3.10
2019-05-05T06:34:44.293Z,3.10
2019-05-05T06:37:14.552Z,3.20
2019-05-05T06:39:44.025Z,3.20
2019-05-05T06:42:26.457Z,3.30
2019-05-05T06:44:59.602Z,3.10
2019-05-05T06:47:28.682Z,3.20
2019-05-05T06:49:57.116Z,3.10
2019-05-05T06:52:25.533Z,3.20
2019-05-05T06:54:54.346Z,3.30
2019-05-05T06:57:24.024Z,3.30
2019-05-05T06:59:54.346Z,3.40
2019-05-05T07:02:23.816Z,3.50
2019-05-05T07:04:54.513Z,3.50
2019-05-05T07:07:23.605Z,3.60
2019-05-05T07:09:54.062Z,3.60
2019-05-05T07:12:24.198Z,3.70
2019-05-05T07:14:53.813Z,3.60
2019-05-05T07:17:23.961Z,3.70
2019-05-05T07:19:54.350Z,3.60
2019-05-05T07:22:24.432Z,3.70
2019-05-05T07:24:54.183Z,3.60
2019-05-05T07:27:24.288Z,3.70
2019-05-05T07:29:54.165Z,3.80
2019-05-05T07:32:24.508Z,4.00
2019-05-05T07:34:54.719Z,3.90
2019-05-05T07:37:23.860Z,4.10
2019-05-05T07:39:54.039Z,4.10
2019-05-05T07:42:24.297Z,4.20
2019-05-05T07:44:54.613Z,4.20
2019-05-05T07:47:23.824Z,4.10
2019-05-05T07:49:53.520Z,4.10
2019-05-05T07:52:23.743Z,4.10
2019-05-05T07:54:52.401Z,4.20
2019-05-05T07:57:20.873Z,4.20
2019-05-05T07:59:49.284Z,4.20
2019-05-05T08:02:17.705Z,4.40
2019-05-05T08:04:46.235Z,4.40
2019-05-05T08:07:14.827Z,4.50
2019-05-05T08:09:44.426Z,4.60
2019-05-05T08:12:13.718Z,4.60
2019-05-05T08:14:44.256Z,4.80
2019-05-05T08:17:16.825Z,5.10
2019-05-05T08:19:46.889Z,5.30
2019-05-05T08:22:15.372Z,5.00
2019-05-05T08:25:04.094Z,4.90
2019-05-05T08:27:34.511Z,4.90
2019-05-05T08:30:08.043Z,5.00
2019-05-05T08:32:38.131Z,5.10
2019-05-05T08:35:07.770Z,5.30
2019-05-05T08:37:36.267Z,5.50
2019-05-05T08:40:06.601Z,5.70
2019-05-05T08:42:35.082Z,5.80
2019-05-05T08:45:04.581Z,6.00
2019-05-05T08:47:34.558Z,6.20
2019-05-05T08:50:04.543Z,6.30
2019-05-05T08:52:34.272Z,6.60
2019-05-05T08:55:04.701Z,6.70
2019-05-05T08:57:34.090Z,6.70
2019-05-05T09:00:24.305Z,6.40
2019-05-05T09:02:54.212Z,6.20
2019-05-05T09:05:23.835Z,6.30
2019-05-05T09:07:54.608Z,6.20
2019-05-05T09:10:23.665Z,6.20
2019-05-05T09:12:54.143Z,6.40
2019-05-05T09:15:24.262Z,6.50
2019-05-05T09:17:54.443Z,6.60
2019-05-05T09:20:24.173Z,6.70
2019-05-05T09:22:53.555Z,6.70
2019-05-05T09:25:40.162Z,6.80
2019-05-05T09:28:23.841Z,6.90
2019-05-05T09:30:53.637Z,7.10
2019-05-05T09:33:24.741Z,7.40
2019-05-05T09:35:54.174Z,7.70
2019-05-05T09:38:24.017Z,7.90
2019-05-05T09:40:54.285Z,8.10
2019-05-05T09:43:23.999Z,8.20
2019-05-05T09:45:54.480Z,8.50
2019-05-05T09:48:24.310Z,8.70
2019-05-05T09:50:54.106Z,8.80
2019-05-05T09:53:23.805Z,8.80
2019-05-05T09:55:54.719Z,8.70
2019-05-05T09:58:24.205Z,8.30
2019-05-05T10:00:54.593Z,8.00
2019-05-05T10:03:22.969Z,7.80
2019-05-05T10:05:51.442Z,7.60
2019-05-05T10:08:19.865Z,7.50
2019-05-05T10:10:48.274Z,7.20
2019-05-05T10:13:16.665Z,7.20
2019-05-05T10:15:45.174Z,6.90
2019-05-05T10:18:14.235Z,6.90
2019-05-05T10:20:42.881Z,7.00
2019-05-05T10:23:11.401Z,7.20
2019-05-05T10:25:41.470Z,7.30
2019-05-05T10:28:09.878Z,7.30
2019-05-05T10:30:38.321Z,7.40
2019-05-05T10:33:06.799Z,7.60
2019-05-05T10:35:35.211Z,8.00
2019-05-05T10:38:03.894Z,8.30
2019-05-05T10:40:35.642Z,8.50
2019-05-05T10:43:04.703Z,8.30
2019-05-05T10:45:33.570Z,8.00
2019-05-05T10:48:03.891Z,7.80
2019-05-05T10:50:34.063Z,7.50
2019-05-05T10:53:04.612Z,7.50
2019-05-05T10:55:34.644Z,7.20
2019-05-05T10:58:02.988Z,7.20
2019-05-05T11:00:54.363Z,7.00
2019-05-05T11:03:23.704Z,6.70
2019-05-05T11:05:53.852Z,6.70
2019-05-05T11:08:24.134Z,6.70
2019-05-05T11:10:52.746Z,7.10
2019-05-05T11:13:21.221Z,7.60
2019-05-05T11:15:49.643Z,7.90
2019-05-05T11:18:18.154Z,8.30
2019-05-05T11:20:46.647Z,8.60
2019-05-05T11:23:15.409Z,8.80
2019-05-05T11:25:44.355Z,8.70
2019-05-05T11:28:13.292Z,8.00
2019-05-05T11:30:45.402Z,8.10
2019-05-05T11:33:31.845Z,8.50
2019-05-05T11:36:01.957Z,9.00
2019-05-05T11:38:30.385Z,9.20
2019-05-05T11:40:58.813Z,9.20
2019-05-05T11:43:27.200Z,9.50
2019-05-05T11:45:55.622Z,9.50
2019-05-05T11:48:24.474Z,9.60
2019-05-05T11:50:54.074Z,9.80
2019-05-05T11:53:24.892Z,9.50
2019-05-05T11:55:54.945Z,9.30
2019-05-05T11:58:24.862Z,9.40
2019-05-05T12:00:54.498Z,9.80
2019-05-05T12:03:23.631Z,10.00
2019-05-05T12:05:52.129Z,10.10
2019-05-05T12:08:20.539Z,9.90
2019-05-05T12:10:50.695Z,9.70
2019-05-05T12:13:19.118Z,9.50
2019-05-05T12:15:49.256Z,9.30
2019-05-05T12:18:17.686Z,9.00
2019-05-05T12:20:46.113Z,8.90
2019-05-05T12:23:14.567Z,8.50
2019-05-05T12:25:50.659Z,8.70
2019-05-05T12:28:38.675Z,8.80
2019-05-05T12:31:17.639Z,9.20
2019-05-05T12:33:46.073Z,9.90
2019-05-05T12:36:15.190Z,10.30
2019-05-05T12:38:44.051Z,10.60
2019-05-05T12:41:14.598Z,10.50
2019-05-05T12:43:44.140Z,10.00
2019-05-05T12:46:24.311Z,9.90
2019-05-05T12:48:54.524Z,9.80
2019-05-05T12:51:23.640Z,9.40
2019-05-05T12:53:53.961Z,9.20
2019-05-05T12:56:23.853Z,8.90
2019-05-05T12:58:54.358Z,8.40
2019-05-05T13:01:24.651Z,8.00
2019-05-05T13:03:54.254Z,8.00
2019-05-05T13:06:24.009Z,8.10
2019-05-05T13:08:52.840Z,8.10
2019-05-05T13:11:21.313Z,8.40
2019-05-05T13:13:49.756Z,8.70
2019-05-05T13:16:18.209Z,8.90
2019-05-05T13:18:46.715Z,8.90
2019-05-05T13:21:19.395Z,9.00
2019-05-05T13:23:58.694Z,8.80
2019-05-05T13:26:34.766Z,8.70
2019-05-05T13:29:03.285Z,8.90
2019-05-05T13:31:33.614Z,9.30
2019-05-05T13:34:04.295Z,9.70
2019-05-05T13:36:33.419Z,10.00
2019-05-05T13:39:02.022Z,10.30
2019-05-05T13:41:30.483Z,10.50
2019-05-05T13:43:59.810Z,10.70
2019-05-05T13:46:29.855Z,11.00
2019-05-05T13:49:00.002Z,10.90
2019-05-05T13:51:28.429Z,11.20
2019-05-05T13:53:56.861Z,11.20
2019-05-05T13:56:25.276Z,11.10
2019-05-05T13:58:53.758Z,10.40
2019-05-05T14:01:23.769Z,9.70
2019-05-05T14:03:54.193Z,9.10
2019-05-05T14:06:24.279Z,9.10
2019-05-05T14:08:54.014Z,8.90
2019-05-05T14:11:24.553Z,8.70
2019-05-05T14:13:52.980Z,8.60
2019-05-05T14:16:21.420Z,8.50
2019-05-05T14:18:49.851Z,8.30
2019-05-05T14:21:18.337Z,8.10
2019-05-05T14:23:54.532Z,8.10
2019-05-05T14:26:27.916Z,8.10
2019-05-05T14:28:54.143Z,8.00
2019-05-05T14:31:24.509Z,8.20
2019-05-05T14:33:57.021Z,8.40
2019-05-05T14:36:29.793Z,8.60
2019-05-05T14:38:59.096Z,8.70
2019-05-05T14:41:27.525Z,9.00
2019-05-05T14:43:56.571Z,9.10
2019-05-05T14:46:25.213Z,9.30
2019-05-05T14:48:53.663Z,9.60
2019-05-05T14:51:22.154Z,10.00
2019-05-05T14:53:50.574Z,10.50
2019-05-05T14:56:19.114Z,10.80
2019-05-05T14:58:47.549Z,10.90
2019-05-05T15:01:19.159Z,10.90
2019-05-05T15:03:47.586Z,11.00
2019-05-05T15:06:26.487Z,11.50
2019-05-05T15:08:56.566Z,11.80
2019-05-05T15:11:38.729Z,12.10
2019-05-05T15:14:07.133Z,12.40
2019-05-05T15:16:38.167Z,12.70
2019-05-05T15:19:06.608Z,12.90
2019-05-05T15:21:38.188Z,13.20
2019-05-05T15:24:07.647Z,12.80
2019-05-05T15:26:48.864Z,12.80
2019-05-05T15:29:06.406Z,12.60
2019-05-05T15:31:34.850Z,12.40
2019-05-05T15:34:20.190Z,12.30
2019-05-05T15:36:48.614Z,12.10
2019-05-05T15:39:17.051Z,11.70
2019-05-05T15:41:45.470Z,11.30
2019-05-05T15:44:14.079Z,11.30
2019-05-05T15:46:44.219Z,11.30
2019-05-05T15:49:13.318Z,10.70
2019-05-05T15:51:41.983Z,10.60
2019-05-05T15:54:10.408Z,10.60
2019-05-05T15:56:38.844Z,10.70
2019-05-05T15:59:07.384Z,10.50
2019-05-05T16:01:35.825Z,10.40
2019-05-05T16:04:04.224Z,10.20
2019-05-05T16:06:34.336Z,10.40
2019-05-05T16:09:51.156Z,10.20
2019-05-05T16:12:31.193Z,10.20
2019-05-05T16:14:51.437Z,10.20
2019-05-05T16:17:24.278Z,10.10
2019-05-05T16:20:00.586Z,10.10
2019-05-05T16:22:45.779Z,9.90
2019-05-05T16:25:15.509Z,9.90
2019-05-05T16:27:44.679Z,9.90
2019-05-05T16:30:15.238Z,9.80
2019-05-05T16:32:43.666Z,9.70
2019-05-05T16:38:40.873Z,9.80
2019-05-05T16:41:09.414Z,9.90
2019-05-05T16:43:37.828Z,9.80
2019-05-05T16:46:07.250Z,9.90
2019-05-05T16:48:35.671Z,9.80
2019-05-05T16:51:05.710Z,9.60
2019-05-05T16:53:38.211Z,9.60
2019-05-05T16:56:10.475Z,9.50
2019-05-05T16:58:39.237Z,9.30
2019-05-05T17:01:09.368Z,9.50
2019-05-05T17:03:38.771Z,9.60
2019-05-05T17:06:07.251Z,9.40
2019-05-05T17:08:35.697Z,9.40
2019-05-05T17:11:04.254Z,9.40
2019-05-05T17:13:49.326Z,9.40
2019-05-05T17:16:25.351Z,9.50
2019-05-05T17:18:58.401Z,9.50
2019-05-05T17:21:31.182Z,9.50
2019-05-05T17:23:59.653Z,9.60
2019-05-05T17:26:28.213Z,9.50
2019-05-05T17:28:56.651Z,9.40
2019-05-05T17:31:25.070Z,9.30
2019-05-05T17:33:53.680Z,9.30
2019-05-05T17:36:24.168Z,9.30
2019-05-05T17:38:54.360Z,9.20
2019-05-05T17:41:24.564Z,9.10
2019-05-05T17:43:54.637Z,8.80
2019-05-05T17:46:30.804Z,8.80
2019-05-05T17:49:17.231Z,8.80
2019-05-05T17:51:59.267Z,8.70
2019-05-05T17:54:35.182Z,8.60
2019-05-05T17:57:03.782Z,8.50
2019-05-05T17:59:34.804Z,8.40
2019-05-05T18:02:04.887Z,8.30
2019-05-05T18:04:40.319Z,8.30
2019-05-05T18:07:10.626Z,8.20
2019-05-05T18:09:58.758Z,8.20
2019-05-05T18:12:37.650Z,8.10
2019-05-05T18:15:08.347Z,8.00
2019-05-05T18:17:36.769Z,7.90
2019-05-05T18:20:06.528Z,7.90
2019-05-05T18:22:34.954Z,7.80
2019-05-05T18:25:04.806Z,7.70
2019-05-05T18:27:34.406Z,7.70
2019-05-05T18:30:06.049Z,7.60
2019-05-05T18:32:34.481Z,7.50
2019-05-05T18:35:06.404Z,7.40
2019-05-05T18:37:33.969Z,7.40
2019-05-05T18:40:45.675Z,7.30
2019-05-05T18:43:15.784Z,7.20
2019-05-05T18:45:44.302Z,7.00
2019-05-05T18:48:14.018Z,6.90
2019-05-05T18:50:42.682Z,6.80
2019-05-05T18:53:11.106Z,6.70
2019-05-05T18:55:39.524Z,6.60
2019-05-05T18:58:08.211Z,6.50
2019-05-05T19:00:54.580Z,6.40
2019-05-05T19:03:24.965Z,6.30
2019-05-05T19:08:53.686Z,6.20
2019-05-05T19:11:12.365Z,6.00
2019-05-05T19:13:40.791Z,6.10
2019-05-05T19:16:09.359Z,6.00
2019-05-05T19:18:37.761Z,5.90
2019-05-05T19:21:19.638Z,5.70
2019-05-05T19:23:48.054Z,5.70
2019-05-05T19:26:16.559Z,5.70
2019-05-05T19:28:49.927Z,5.50
2019-05-05T19:31:15.116Z,5.50
2019-05-05T19:33:43.516Z,5.40
2019-05-05T19:36:11.952Z,5.40
2019-05-05T19:38:44.218Z,5.40
2019-05-05T19:41:14.388Z,5.30
2019-05-05T19:43:54.383Z,5.30
2019-05-05T19:46:25.641Z,5.30
2019-05-05T19:49:14.723Z,5.30
2019-05-05T19:51:44.603Z,5.30
2019-05-05T19:54:14.366Z,5.30
2019-05-05T19:56:44.781Z,5.20
2019-05-05T19:59:13.838Z,5.20
2019-05-05T20:01:44.693Z,5.20
2019-05-05T20:04:14.491Z,5.10
2019-05-05T20:06:44.257Z,5.10
2019-05-05T20:09:14.158Z,5.00
2019-05-05T20:11:43.900Z,4.90
2019-05-05T20:14:15.143Z,4.90
2019-05-05T20:17:00.759Z,4.80
2019-05-05T20:19:31.270Z,4.80
2019-05-05T20:21:59.763Z,4.80
2019-05-05T20:24:28.251Z,4.70
2019-05-05T20:26:56.666Z,4.60
2019-05-05T20:29:25.100Z,4.60
2019-05-05T20:31:54.813Z,4.50
2019-05-05T20:34:27.960Z,4.50
2019-05-05T20:37:09.945Z,4.40
2019-05-05T20:39:39.745Z,4.30
2019-05-05T20:42:09.993Z,4.20
2019-05-05T20:44:43.577Z,4.10
2019-05-05T20:47:11.364Z,4.10
2019-05-05T20:49:39.794Z,4.00
2019-05-05T20:52:08.202Z,3.90
2019-05-05T20:54:37.947Z,3.90
2019-05-05T20:57:06.349Z,3.90
2019-05-05T20:59:34.764Z,3.80
2019-05-05T21:02:04.461Z,3.70
2019-05-05T21:04:34.466Z,3.70
2019-05-05T21:07:04.475Z,3.60
2019-05-05T21:09:34.451Z,3.60
2019-05-05T21:12:04.690Z,3.50
2019-05-05T21:14:37.114Z,3.40
2019-05-05T21:17:04.158Z,3.40
2019-05-05T21:19:34.598Z,3.30
2019-05-05T21:22:07.738Z,3.20
2019-05-05T21:24:36.140Z,3.20
2019-05-05T21:27:04.815Z,3.10
2019-05-05T21:29:41.400Z,3.10
2019-05-05T21:32:04.535Z,3.10
2019-05-05T21:34:34.278Z,2.90
2019-05-05T21:37:04.393Z,2.90
2019-05-05T21:39:34.958Z,3.00
2019-05-05T21:42:08.325Z,2.80
2019-05-05T21:44:44.408Z,2.90
2019-05-05T21:47:14.186Z,2.80
2019-05-05T21:49:42.887Z,2.80
2019-05-05T21:52:16.077Z,2.60
2019-05-05T21:54:46.162Z,2.70
2019-05-05T21:57:30.966Z,2.60
2019-05-05T21:59:59.390Z,2.60
2019-05-05T22:02:31.459Z,2.50
2019-05-05T22:04:59.878Z,2.50
2019-05-05T22:07:28.305Z,2.50
2019-05-05T22:09:56.726Z,2.50
2019-05-05T22:12:25.168Z,2.40
2019-05-05T22:14:55.106Z,2.30
2019-05-05T22:17:23.854Z,2.30
2019-05-05T22:20:06.112Z,2.30
2019-05-05T22:22:36.490Z,2.30
2019-05-05T22:25:06.706Z,2.30
2019-05-05T22:27:35.133Z,2.20
2019-05-05T22:30:09.848Z,2.20
2019-05-05T22:32:35.051Z,2.10
2019-05-05T22:35:07.585Z,2.00
2019-05-05T22:37:35.998Z,2.00
2019-05-05T22:40:04.974Z,2.10
2019-05-05T22:42:34.228Z,2.10
2019-05-05T22:45:04.663Z,2.00
2019-05-05T22:47:34.562Z,2.00
2019-05-05T22:50:04.407Z,2.00
2019-05-05T22:52:34.392Z,1.90
2019-05-05T22:55:04.570Z,1.90
2019-05-05T22:57:34.505Z,1.90
2019-05-05T23:00:05.112Z,1.80
2019-05-05T23:02:35.182Z,1.80
2019-05-05T23:05:06.426Z,1.90
2019-05-05T23:07:35.107Z,1.90
2019-05-05T23:10:05.068Z,1.90
2019-05-05T23:12:35.076Z,1.80
2019-05-05T23:15:06.470Z,1.90
2019-05-05T23:17:51.970Z,1.80
2019-05-05T23:20:41.981Z,1.80
2019-05-05T23:23:14.837Z,1.80
2019-05-05T23:25:45.761Z,1.70
2019-05-05T23:28:14.736Z,1.80
2019-05-05T23:30:44.714Z,1.80
2019-05-05T23:33:14.311Z,1.70
2019-05-05T23:35:43.695Z,1.60
2019-05-05T23:38:14.232Z,1.60
2019-05-05T23:40:42.382Z,1.60
2019-05-05T23:43:10.806Z,1.60
2019-05-05T23:45:39.212Z,1.60
2019-05-05T23:48:08.678Z,1.60
2019-05-05T23:50:37.111Z,1.60
2019-05-05T23:53:05.593Z,1.60
2019-05-05T23:55:34.424Z,1.50
2019-05-05T23:58:03.750Z,1.50
